»·PEaware :: ASA16 KSAN-KSMF

ASA16 :: KSAN-KSMF

FLIGHT INFORMATION

Flight Status: Arrived
Operator:
Alaska Airlines
More flights by this operator :: More flights under this callsign
Pilot: Steve F. (26981)
Aircraft: BOEING 737-800
(B738)
More flights by this aircraft type
Origin: KSAN San Diego Intl-Lindbergh
United States
Destination: KSMF Sacramento Intl
United States
More flights between these airports :: More routes between these airports
Route: +PADRZ2 EHF NURAY SUUTR3
File this flight plan on PilotEdge
Remarks:
Altitude:
(Current/Filed)
38,000ft
Speed:
(Current/Filed)
430kts
Departed: 01-Aug-20 05:14 PM
Arrived: 01-Aug-20 06:25 PM
Distance/Time
Traveled:
417nm/1:11
Distance/Time
To Go:
Arrived

Flight Plot

Page will automatically refresh every two minutes.


Map Options




Map Legend


Flown Route
Filed Route
Departure Airport
Arrival Airport
Navaid (VOR, NDB)
Fix

Horizontal Profiles

Position Reports

Time Latitude Longitude Heading Altitude Ground
Speed
01-Aug-20 16:53 32.733689 -117.198928 143 23ft 0kts
01-Aug-20 16:54 32.733689 -117.198928 143 23ft 0kts
01-Aug-20 16:55 32.733689 -117.198928 143 23ft 0kts
01-Aug-20 16:56 32.733689 -117.198928 143 23ft 0kts
01-Aug-20 16:57 32.733689 -117.198928 143 23ft 0kts
01-Aug-20 16:58 32.733689 -117.198928 143 23ft 0kts
01-Aug-20 16:59 32.733689 -117.198928 143 23ft 0kts
01-Aug-20 17:00 32.733689 -117.198928 143 23ft 0kts
01-Aug-20 17:01 32.733689 -117.198928 143 23ft 0kts
01-Aug-20 17:02 32.733934 -117.199293 108 23ft 2kts
01-Aug-20 17:03 32.733958 -117.199408 98 23ft 0kts
01-Aug-20 17:04 32.733958 -117.199407 98 23ft 0kts
01-Aug-20 17:05 32.733958 -117.199405 98 23ft 0kts
01-Aug-20 17:06 32.733957 -117.199404 98 23ft 0kts
01-Aug-20 17:07 32.734525 -117.198596 52 23ft 13kts
01-Aug-20 17:08 32.733518 -117.193472 106 23ft 22kts
01-Aug-20 17:09 32.731801 -117.186200 105 23ft 20kts
01-Aug-20 17:10 32.730352 -117.180019 106 23ft 17kts
01-Aug-20 17:11 32.729619 -117.176558 69 23ft 0kts
01-Aug-20 17:12 32.729872 -117.175772 68 23ft 11kts
01-Aug-20 17:13 32.733824 -117.190711 285 23ft 145kts
01-Aug-20 17:14 32.759189 -117.249964 304 1885ft 255kts
01-Aug-20 17:15 32.801916 -117.322231 306 4869ft 271kts
01-Aug-20 17:16 32.848781 -117.394541 306 7768ft 280kts
01-Aug-20 17:17 32.897286 -117.469843 305 10380ft 295kts
01-Aug-20 17:18 32.952163 -117.555102 305 11617ft 358kts
01-Aug-20 17:19 33.015222 -117.653631 305 13669ft 382kts
01-Aug-20 17:20 33.085413 -117.752225 316 15963ft 400kts
01-Aug-20 17:21 33.171745 -117.839380 318 18083ft 414kts
01-Aug-20 17:22 33.261826 -117.928327 319 20102ft 425kts
01-Aug-20 17:23 33.354465 -118.018568 319 21827ft 435kts
01-Aug-20 17:24 33.449209 -118.111353 319 23360ft 443kts
01-Aug-20 17:25 33.545197 -118.205814 320 24693ft 450kts
01-Aug-20 17:26 33.655385 -118.280223 334 25876ft 460kts
01-Aug-20 17:27 33.772712 -118.344422 334 26952ft 468kts
01-Aug-20 17:28 33.893616 -118.404939 335 27948ft 474kts
01-Aug-20 17:29 34.018289 -118.460443 345 28880ft 482kts
01-Aug-20 17:30 34.151083 -118.483035 350 30255ft 480kts
01-Aug-20 17:31 34.283103 -118.503091 350 31659ft 476kts
01-Aug-20 17:32 34.414189 -118.523237 350 33091ft 471kts
01-Aug-20 17:33 34.543550 -118.543231 350 34482ft 467kts
01-Aug-20 17:34 34.672466 -118.563250 350 35773ft 464kts
01-Aug-20 17:35 34.800021 -118.583085 349 36986ft 461kts
01-Aug-20 17:36 34.926882 -118.602946 349 38093ft 459kts
01-Aug-20 17:37 35.045560 -118.651244 320 38154ft 445kts
01-Aug-20 17:38 35.141198 -118.746730 317 38141ft 443kts
01-Aug-20 17:39 35.235743 -118.843117 317 38090ft 444kts
01-Aug-20 17:40 35.330943 -118.939724 317 38021ft 443kts
01-Aug-20 17:41 35.425634 -119.036762 316 37978ft 443kts
01-Aug-20 17:42 35.528422 -119.120983 331 37970ft 450kts
01-Aug-20 17:43 35.643539 -119.182817 332 37971ft 451kts
01-Aug-20 17:44 35.758379 -119.244669 332 37970ft 451kts
01-Aug-20 17:45 35.873708 -119.306827 332 37973ft 451kts
01-Aug-20 17:47 35.988601 -119.369007 332 37980ft 451kts
01-Aug-20 17:48 36.103943 -119.431702 332 37980ft 452kts
01-Aug-20 17:49 36.219177 -119.494561 332 37977ft 452kts
01-Aug-20 17:50 36.334167 -119.557397 332 37972ft 452kts
01-Aug-20 17:51 36.449410 -119.620676 332 37975ft 452kts
01-Aug-20 17:52 36.564153 -119.683978 332 37978ft 452kts
01-Aug-20 17:53 36.672804 -119.761222 323 37978ft 448kts
01-Aug-20 17:54 36.778246 -119.844448 324 37980ft 449kts
01-Aug-20 17:55 36.884065 -119.927958 324 37988ft 449kts
01-Aug-20 17:56 36.990270 -120.011542 324 36234ft 453kts
01-Aug-20 17:57 37.098100 -120.096721 325 33731ft 462kts
01-Aug-20 17:58 37.207993 -120.184223 325 31230ft 472kts
01-Aug-20 17:59 37.319684 -120.273312 326 28565ft 475kts
01-Aug-20 18:00 37.429721 -120.361507 326 25665ft 464kts
01-Aug-20 18:00 37.512629 -120.435937 319 25071ft 417kts
01-Aug-20 18:02 37.615749 -120.540145 320 22113ft 398kts
01-Aug-20 18:03 37.700803 -120.625435 320 19394ft 385kts
01-Aug-20 18:04 37.783182 -120.708474 320 17787ft 373kts
01-Aug-20 18:04 37.850374 -120.776242 320 16534ft 369kts
01-Aug-20 18:06 37.942930 -120.870036 320 14785ft 362kts
01-Aug-20 18:07 38.020709 -120.949340 319 13282ft 355kts
01-Aug-20 18:07 38.083035 -121.016086 312 12210ft 343kts
01-Aug-20 18:08 38.141063 -121.101873 308 11919ft 300kts
01-Aug-20 18:09 38.194401 -121.181139 308 11000ft 291kts
01-Aug-20 18:10 38.249230 -121.256106 314 10255ft 289kts
01-Aug-20 18:11 38.306354 -121.327273 313 9490ft 285kts
01-Aug-20 18:12 38.362387 -121.398225 313 8688ft 282kts
01-Aug-20 18:13 38.417532 -121.468481 313 7887ft 278kts
01-Aug-20 18:14 38.471877 -121.537847 314 7089ft 275kts
01-Aug-20 18:15 38.531137 -121.598805 320 6287ft 272kts
01-Aug-20 18:16 38.590240 -121.658121 320 5462ft 265kts
01-Aug-20 18:17 38.657627 -121.688287 353 4405ft 261kts
01-Aug-20 18:18 38.728171 -121.695250 355 3620ft 242kts
01-Aug-20 18:19 38.791688 -121.693869 2 3011ft 212kts
01-Aug-20 18:20 38.814356 -121.641226 114 2565ft 183kts
01-Aug-20 18:21 38.780398 -121.601278 165 1784ft 155kts
01-Aug-20 18:22 38.737878 -121.600749 181 585ft 147kts
01-Aug-20 18:23 38.698208 -121.601249 180 36ft 98kts
01-Aug-20 18:24 38.690028 -121.600501 92 36ft 0kts
01-Aug-20 18:25 38.690024 -121.598963 90 36ft 2kts
01-Aug-20 18:26 38.694191 -121.597903 3 36ft 15kts
01-Aug-20 18:27 38.693851 -121.594198 93 36ft 6kts
01-Aug-20 18:28 38.693828 -121.593976 102 36ft 0kts
01-Aug-20 18:29 38.693828 -121.593976 102 36ft 0kts

Navigation Log

Ident Type
Flight plan parsing failed, navigation log unavailable